createdAt,value
2024-04-09T00:01:44.627Z,85.50
2024-04-09T00:04:12.152Z,86.88
2024-04-09T00:06:39.589Z,87.65
2024-04-09T00:09:07.559Z,85.17
2024-04-09T00:11:37.137Z,82.80
2024-04-09T00:14:05.827Z,81.94
2024-04-09T00:16:34.939Z,81.32
2024-04-09T00:19:02.703Z,80.11
2024-04-09T00:21:31.134Z,79.48
2024-04-09T00:23:59.884Z,79.31
2024-04-09T00:26:30.616Z,78.94
2024-04-09T00:28:57.922Z,79.52
2024-04-09T00:31:28.378Z,79.47
2024-04-09T00:33:56.835Z,81.07
2024-04-09T00:36:24.437Z,82.74
2024-04-09T00:38:55.813Z,85.15
2024-04-09T00:41:23.155Z,85.42
2024-04-09T00:43:50.442Z,83.14
2024-04-09T00:46:18.103Z,81.30
2024-04-09T00:48:45.767Z,80.54
2024-04-09T00:51:15.635Z,80.41
2024-04-09T00:53:44.455Z,81.57
2024-04-09T00:56:12.752Z,82.96
2024-04-09T00:58:40.302Z,85.16
2024-04-09T01:01:07.719Z,86.25
2024-04-09T01:03:35.273Z,86.33
2024-04-09T01:06:03.833Z,85.50
2024-04-09T01:08:31.242Z,83.27
2024-04-09T01:10:58.601Z,81.71
2024-04-09T01:13:25.939Z,80.41
2024-04-09T01:15:53.218Z,80.06
2024-04-09T01:18:20.587Z,79.29
2024-04-09T01:20:48.126Z,79.15
2024-04-09T01:23:15.481Z,79.40
2024-04-09T01:25:44.104Z,79.91
2024-04-09T01:28:11.452Z,79.61
2024-04-09T01:30:39.387Z,82.46
2024-04-09T01:33:07.117Z,85.26
2024-04-09T01:35:34.518Z,86.85
2024-04-09T01:38:02.091Z,86.47
2024-04-09T01:40:29.437Z,83.23
2024-04-09T01:42:56.728Z,82.09
2024-04-09T01:45:24.127Z,80.68
2024-04-09T01:47:51.964Z,80.29
2024-04-09T01:50:19.642Z,83.81
2024-04-09T01:52:49.612Z,86.55
2024-04-09T01:55:18.711Z,88.13
2024-04-09T01:57:46.050Z,89.75
2024-04-09T02:00:14.331Z,88.76
2024-04-09T02:02:44.964Z,86.42
2024-04-09T02:05:14.163Z,83.89
2024-04-09T02:07:42.337Z,82.97
2024-04-09T02:10:10.762Z,84.89
2024-04-09T02:12:39.868Z,85.61
2024-04-09T02:15:08.174Z,88.01
2024-04-09T02:17:36.850Z,90.25
2024-04-09T02:20:05.442Z,91.10
2024-04-09T02:22:33.272Z,91.52
2024-04-09T02:25:00.616Z,92.13
2024-04-09T02:27:28.423Z,90.74
2024-04-09T02:29:58.258Z,86.64
2024-04-09T02:32:25.650Z,86.85
2024-04-09T02:34:52.963Z,84.16
2024-04-09T02:37:20.289Z,87.54
2024-04-09T02:39:47.643Z,88.17
2024-04-09T02:42:15.345Z,85.52
2024-04-09T02:44:42.849Z,86.15
2024-04-09T02:47:10.241Z,90.07
2024-04-09T02:49:37.523Z,91.70
2024-04-09T02:52:05.428Z,91.86
2024-04-09T02:54:32.954Z,88.80
2024-04-09T02:57:00.422Z,86.80
2024-04-09T02:59:27.732Z,84.41
2024-04-09T03:01:55.211Z,85.73
2024-04-09T03:04:22.851Z,89.15
2024-04-09T03:06:50.387Z,89.78
2024-04-09T03:09:17.824Z,90.91
2024-04-09T03:11:45.213Z,86.54
2024-04-09T03:14:13.422Z,85.47
2024-04-09T03:16:41.156Z,84.50
2024-04-09T03:19:08.642Z,85.13
2024-04-09T03:21:36.513Z,84.60
2024-04-09T03:24:04.413Z,88.10
2024-04-09T03:26:31.825Z,89.43
2024-04-09T03:28:59.122Z,87.60
2024-04-09T03:31:29.990Z,84.86
2024-04-09T03:33:57.937Z,85.28
2024-04-09T03:36:25.333Z,86.54
2024-04-09T03:38:53.842Z,86.79
2024-04-09T03:41:21.175Z,88.03
2024-04-09T03:43:48.531Z,90.18
2024-04-09T03:46:17.554Z,91.28
2024-04-09T03:48:46.984Z,91.27
2024-04-09T03:51:16.129Z,91.37
2024-04-09T03:53:44.132Z,91.65
2024-04-09T03:56:11.592Z,91.72
2024-04-09T03:58:41.607Z,91.32
2024-04-09T04:01:10.427Z,91.25
2024-04-09T04:03:42.475Z,91.73
2024-04-09T04:06:10.183Z,91.88
2024-04-09T04:08:39.875Z,92.00
2024-04-09T04:11:08.933Z,92.29
2024-04-09T04:13:37.394Z,92.49
2024-04-09T04:16:15.005Z,92.87
2024-04-09T04:18:45.810Z,93.24
2024-04-09T04:21:14.886Z,92.92
2024-04-09T04:23:42.798Z,92.29
2024-04-09T04:26:14.604Z,90.49
2024-04-09T04:28:43.798Z,89.92
2024-04-09T04:31:13.010Z,89.92
2024-04-09T04:33:41.343Z,89.10
2024-04-09T04:36:12.508Z,88.01
2024-04-09T04:38:41.997Z,85.76
2024-04-09T04:41:09.295Z,86.61
2024-04-09T04:43:42.725Z,85.84
2024-04-09T04:46:10.228Z,85.79
2024-04-09T04:48:41.675Z,84.93
2024-04-09T04:51:10.275Z,84.85
2024-04-09T04:53:37.768Z,84.78
2024-04-09T04:56:05.381Z,84.69
2024-04-09T04:58:32.704Z,84.47
2024-04-09T05:01:00.216Z,83.96
2024-04-09T05:03:27.779Z,83.47
2024-04-09T05:05:55.122Z,83.93
2024-04-09T05:08:23.486Z,83.93
2024-04-09T05:10:51.256Z,83.74
2024-04-09T05:13:18.561Z,83.62
2024-04-09T05:15:45.950Z,83.90
2024-04-09T05:18:16.040Z,84.11
2024-04-09T05:20:43.619Z,84.34
2024-04-09T05:23:11.230Z,84.50
2024-04-09T05:25:38.581Z,84.41
2024-04-09T05:28:05.969Z,84.22
2024-04-09T05:30:33.349Z,84.03
2024-04-09T05:33:00.903Z,84.18
2024-04-09T05:35:28.426Z,82.18
2024-04-09T05:37:55.847Z,81.76
2024-04-09T05:40:23.278Z,84.35
2024-04-09T05:42:50.995Z,85.45
2024-04-09T05:45:21.259Z,85.72
2024-04-09T05:47:49.170Z,82.97
2024-04-09T05:50:16.772Z,81.00
2024-04-09T05:52:44.110Z,80.05
2024-04-09T05:55:13.322Z,84.94
2024-04-09T05:57:41.903Z,86.44
2024-04-09T06:00:23.412Z,82.37
2024-04-09T06:02:51.102Z,80.88
2024-04-09T06:05:18.883Z,81.83
2024-04-09T06:07:47.382Z,85.47
2024-04-09T06:10:17.188Z,85.21
2024-04-09T06:12:45.011Z,83.43
2024-04-09T06:15:12.860Z,81.22
2024-04-09T06:17:40.416Z,82.40
2024-04-09T06:20:08.413Z,82.69
2024-04-09T06:22:35.742Z,82.73
2024-04-09T06:25:03.040Z,82.88
2024-04-09T06:27:30.405Z,82.00
2024-04-09T06:29:57.931Z,82.13
2024-04-09T06:32:25.450Z,81.72
2024-04-09T06:34:52.900Z,81.80
2024-04-09T06:37:20.556Z,81.65
2024-04-09T06:39:48.366Z,80.81
2024-04-09T06:42:15.967Z,80.79
2024-04-09T06:44:43.401Z,80.57
2024-04-09T06:47:10.746Z,79.28
2024-04-09T06:49:38.211Z,80.29
2024-04-09T06:52:05.834Z,79.43
2024-04-09T06:54:33.205Z,80.16
2024-04-09T06:57:00.703Z,80.57
2024-04-09T06:59:28.191Z,80.73
2024-04-09T07:01:55.592Z,82.04
2024-04-09T07:04:23.330Z,80.83
2024-04-09T07:06:51.439Z,80.42
2024-04-09T07:09:22.063Z,81.03
2024-04-09T07:11:49.484Z,80.81
2024-04-09T07:14:16.953Z,80.01
2024-04-09T07:16:45.148Z,79.72
2024-04-09T07:19:12.822Z,80.77
2024-04-09T07:21:40.484Z,79.02
2024-04-09T07:24:08.668Z,80.57
2024-04-09T07:26:36.210Z,79.71
2024-04-09T07:29:03.808Z,79.44
2024-04-09T07:31:31.229Z,79.26
2024-04-09T07:33:58.795Z,80.20
2024-04-09T07:36:26.313Z,80.35
2024-04-09T07:38:56.625Z,79.92
2024-04-09T07:41:27.434Z,80.30
2024-04-09T07:43:56.901Z,80.67
2024-04-09T07:46:25.663Z,80.89
2024-04-09T07:48:53.508Z,79.99
2024-04-09T07:51:21.111Z,81.00
2024-04-09T07:53:48.597Z,81.62
2024-04-09T07:56:16.083Z,81.10
2024-04-09T07:58:44.111Z,81.95
2024-04-09T08:01:11.616Z,80.87
2024-04-09T08:03:39.424Z,80.38
2024-04-09T08:06:08.205Z,81.35
2024-04-09T08:08:39.347Z,82.37
2024-04-09T08:11:12.281Z,80.95
2024-04-09T08:13:39.830Z,82.41
2024-04-09T08:16:08.083Z,82.13
2024-04-09T08:18:36.056Z,80.00
2024-04-09T08:21:04.455Z,81.39
2024-04-09T08:23:32.010Z,80.54
2024-04-09T08:26:02.573Z,79.84
2024-04-09T08:28:29.859Z,80.19
2024-04-09T08:30:57.398Z,80.00
2024-04-09T08:33:24.769Z,79.81
2024-04-09T08:35:52.315Z,79.88
2024-04-09T08:38:21.922Z,79.25
2024-04-09T08:40:49.979Z,79.95
2024-04-09T08:43:20.698Z,80.45
2024-04-09T08:45:48.319Z,79.34
2024-04-09T08:48:18.510Z,78.46
2024-04-09T08:50:51.941Z,78.25
2024-04-09T08:53:20.968Z,78.38
2024-04-09T08:55:49.179Z,78.27
2024-04-09T08:58:16.529Z,77.40
2024-04-09T09:00:43.949Z,76.35
2024-04-09T09:03:11.433Z,76.47
2024-04-09T09:05:38.831Z,77.02
2024-04-09T09:08:08.215Z,76.61
2024-04-09T09:10:36.285Z,77.09
2024-04-09T09:13:05.849Z,76.69
2024-04-09T09:15:33.771Z,76.98
2024-04-09T09:18:01.756Z,77.55
2024-04-09T09:20:29.923Z,77.83
2024-04-09T09:22:57.648Z,77.35
2024-04-09T09:25:27.132Z,77.11
2024-04-09T09:28:10.967Z,77.50
2024-04-09T09:30:45.596Z,77.25
2024-04-09T09:33:25.525Z,76.86
2024-04-09T09:35:52.977Z,76.31
2024-04-09T09:38:24.600Z,76.44
2024-04-09T09:40:53.339Z,75.41
2024-04-09T09:43:22.353Z,76.35
2024-04-09T09:45:49.927Z,76.08
2024-04-09T09:48:27.403Z,76.29
2024-04-09T09:50:55.141Z,76.30
2024-04-09T09:53:23.667Z,76.66
2024-04-09T09:55:55.226Z,76.03
2024-04-09T09:58:25.230Z,76.32
2024-04-09T10:00:56.429Z,76.58
2024-04-09T10:03:24.920Z,77.50
2024-04-09T10:05:53.397Z,77.65
2024-04-09T10:08:24.203Z,77.79
2024-04-09T10:10:52.025Z,77.84
2024-04-09T10:13:29.274Z,77.42
2024-04-09T10:16:02.129Z,77.19
2024-04-09T10:18:39.664Z,76.92
2024-04-09T10:21:08.177Z,76.39
2024-04-09T10:23:37.748Z,76.31
2024-04-09T10:26:09.447Z,76.02
2024-04-09T10:28:37.687Z,77.18
2024-04-09T10:31:16.292Z,76.72
2024-04-09T10:33:43.861Z,76.91
2024-04-09T10:36:13.889Z,76.69
2024-04-09T10:38:43.955Z,77.13
2024-04-09T10:41:13.496Z,76.34
2024-04-09T10:43:41.423Z,76.23
2024-04-09T10:46:14.297Z,76.19
2024-04-09T10:48:44.265Z,76.36
2024-04-09T10:51:12.645Z,76.14
2024-04-09T10:53:40.334Z,75.52
2024-04-09T10:56:09.064Z,75.21
2024-04-09T10:58:40.109Z,74.91
2024-04-09T11:01:14.395Z,75.89
2024-04-09T11:03:42.427Z,76.10
2024-04-09T11:06:09.993Z,76.41
2024-04-09T11:08:37.731Z,76.60
2024-04-09T11:11:05.442Z,76.36
2024-04-09T11:13:33.512Z,77.23
2024-04-09T11:16:03.986Z,77.93
2024-04-09T11:18:32.458Z,78.39
2024-04-09T11:21:05.118Z,78.09
2024-04-09T11:23:33.496Z,78.08
2024-04-09T11:26:03.381Z,77.94
2024-04-09T11:28:32.529Z,79.06
2024-04-09T11:31:01.813Z,78.26
2024-04-09T11:33:29.887Z,78.02
2024-04-09T11:36:05.468Z,78.36
2024-04-09T11:38:38.044Z,78.07
2024-04-09T11:41:05.476Z,78.74
2024-04-09T11:43:33.050Z,78.64
2024-04-09T11:46:03.886Z,79.58
2024-04-09T11:48:31.382Z,79.48
2024-04-09T11:50:59.009Z,79.11
2024-04-09T11:53:26.342Z,80.21
2024-04-09T11:55:55.115Z,80.35
2024-04-09T11:58:22.634Z,80.16
2024-04-09T12:00:50.146Z,79.81
2024-04-09T12:03:17.889Z,80.59
2024-04-09T12:05:45.711Z,79.64
2024-04-09T12:08:13.077Z,80.02
2024-04-09T12:10:40.408Z,80.06
2024-04-09T12:13:07.758Z,80.15
2024-04-09T12:15:35.161Z,79.66
2024-04-09T12:18:02.689Z,79.55
2024-04-09T12:20:30.200Z,78.95
2024-04-09T12:22:57.639Z,79.47
2024-04-09T12:25:25.009Z,80.07
2024-04-09T12:27:53.443Z,80.33
2024-04-09T12:30:20.892Z,79.94
2024-04-09T12:32:48.362Z,80.24
2024-04-09T12:35:21.645Z,79.66
2024-04-09T12:37:51.337Z,80.16
2024-04-09T12:40:18.866Z,79.89
2024-04-09T12:42:47.321Z,79.94
2024-04-09T12:45:14.920Z,79.88
2024-04-09T12:47:42.704Z,79.27
2024-04-09T12:50:14.808Z,77.23
2024-04-09T12:52:42.818Z,73.56
2024-04-09T12:55:11.494Z,74.21
2024-04-09T12:57:39.006Z,76.13
2024-04-09T13:00:22.923Z,73.94
2024-04-09T13:02:57.188Z,72.96
2024-04-09T13:05:25.044Z,73.94
2024-04-09T13:07:52.693Z,70.88
2024-04-09T13:10:21.497Z,73.05
2024-04-09T13:12:49.275Z,73.21
2024-04-09T13:16:44.587Z,72.68
2024-04-09T13:18:04.562Z,73.11
2024-04-09T13:20:32.153Z,72.41
2024-04-09T13:22:59.588Z,76.55
2024-04-09T13:25:26.914Z,76.45
2024-04-09T13:27:54.251Z,75.96
2024-04-09T13:30:22.447Z,75.88
2024-04-09T13:32:50.399Z,76.86
2024-04-09T13:35:17.922Z,78.08
2024-04-09T13:37:46.002Z,76.44
2024-04-09T13:40:14.194Z,76.81
2024-04-09T13:42:45.446Z,76.81
2024-04-09T13:45:14.070Z,76.66
2024-04-09T13:47:42.319Z,77.43
2024-04-09T13:50:11.372Z,77.85
2024-04-09T13:52:38.789Z,78.15
2024-04-09T13:55:09.988Z,78.75
2024-04-09T13:57:37.611Z,78.64
2024-04-09T14:00:09.819Z,78.30
2024-04-09T14:02:37.794Z,78.78
2024-04-09T14:05:06.373Z,78.79
2024-04-09T14:07:33.874Z,78.75
2024-04-09T14:10:01.213Z,78.73
2024-04-09T14:12:28.739Z,79.01
2024-04-09T14:14:56.340Z,79.09
2024-04-09T14:17:24.642Z,78.70
2024-04-09T14:19:53.900Z,78.62
2024-04-09T14:22:21.299Z,78.09
2024-04-09T14:24:48.596Z,78.42
2024-04-09T14:27:15.926Z,78.08
2024-04-09T14:29:44.249Z,78.17
2024-04-09T14:32:11.790Z,77.81
2024-04-09T14:34:39.177Z,77.37
2024-04-09T14:37:06.919Z,77.42
2024-04-09T14:39:34.228Z,77.61
2024-04-09T14:42:01.499Z,77.52
2024-04-09T14:44:29.046Z,77.76
2024-04-09T14:46:56.474Z,78.29
2024-04-09T14:49:23.950Z,77.77
2024-04-09T14:51:51.278Z,78.02
2024-04-09T14:54:18.550Z,77.79
2024-04-09T14:56:45.876Z,77.45
2024-04-09T14:59:14.297Z,77.07
2024-04-09T15:01:42.359Z,77.48
2024-04-09T15:04:09.745Z,77.17
2024-04-09T15:06:37.091Z,77.77
2024-04-09T15:09:08.292Z,77.62
2024-04-09T15:11:35.853Z,77.54
2024-04-09T15:14:05.327Z,77.69
2024-04-09T15:16:33.305Z,77.04
2024-04-09T15:19:00.657Z,77.36
2024-04-09T15:21:27.961Z,77.51
2024-04-09T15:23:55.878Z,77.38
2024-04-09T15:26:23.268Z,77.03
2024-04-09T15:28:50.699Z,76.66
2024-04-09T15:31:18.035Z,77.08
2024-04-09T15:33:45.536Z,77.43
2024-04-09T15:36:13.183Z,77.20
2024-04-09T15:38:40.572Z,77.27
2024-04-09T15:41:08.116Z,77.32
2024-04-09T15:43:35.520Z,77.41
2024-04-09T15:46:02.846Z,77.30
2024-04-09T15:48:30.649Z,77.47
2024-04-09T15:50:58.062Z,77.06
2024-04-09T15:53:26.003Z,77.46
2024-04-09T15:55:54.195Z,77.07
2024-04-09T15:58:21.560Z,77.03
2024-04-09T16:00:49.147Z,76.37
2024-04-09T16:03:17.237Z,76.90
2024-04-09T16:05:46.429Z,77.04
2024-04-09T16:08:14.753Z,76.72
2024-04-09T16:10:42.205Z,76.90
2024-04-09T16:13:09.539Z,76.55
2024-04-09T16:15:36.810Z,76.12
2024-04-09T16:18:04.390Z,76.02
2024-04-09T16:20:31.930Z,76.03
2024-04-09T16:22:59.347Z,75.28
2024-04-09T16:25:26.718Z,75.46
2024-04-09T16:27:55.165Z,75.69
2024-04-09T16:30:26.412Z,76.02
2024-04-09T16:32:56.645Z,74.35
2024-04-09T16:35:25.978Z,73.86
2024-04-09T16:37:53.489Z,75.49
2024-04-09T16:40:20.811Z,74.30
2024-04-09T16:42:48.118Z,75.52
2024-04-09T16:45:15.477Z,74.58
2024-04-09T16:47:44.187Z,74.82
2024-04-09T16:50:13.382Z,75.46
2024-04-09T16:52:40.819Z,73.49
2024-04-09T16:55:08.239Z,74.96
2024-04-09T16:57:42.150Z,73.58
2024-04-09T17:00:13.218Z,73.14
2024-04-09T17:02:40.609Z,74.08
2024-04-09T17:05:09.791Z,74.21
2024-04-09T17:07:37.197Z,74.60
2024-04-09T17:10:11.303Z,74.18
2024-04-09T17:12:39.417Z,74.76
2024-04-09T17:15:07.260Z,74.95
2024-04-09T17:17:35.171Z,75.71
2024-04-09T17:20:03.138Z,75.35
2024-04-09T17:22:30.660Z,73.77
2024-04-09T17:24:58.324Z,74.19
2024-04-09T17:27:26.268Z,74.93
2024-04-09T17:29:53.627Z,74.67
2024-04-09T17:32:21.055Z,75.26
2024-04-09T17:34:48.426Z,75.00
2024-04-09T17:37:15.827Z,74.32
2024-04-09T17:39:43.274Z,74.55
2024-04-09T17:42:10.607Z,74.84
2024-04-09T17:44:38.875Z,75.55
2024-04-09T17:47:06.483Z,75.57
2024-04-09T17:49:33.831Z,76.13
2024-04-09T17:52:01.183Z,75.55
2024-04-09T17:54:28.537Z,74.77
2024-04-09T17:56:55.822Z,75.32
2024-04-09T17:59:23.265Z,75.30
2024-04-09T18:01:50.714Z,76.12
2024-04-09T18:04:18.268Z,74.01
2024-04-09T18:06:46.620Z,74.78
2024-04-09T18:09:16.074Z,74.44
2024-04-09T18:11:43.506Z,75.13
2024-04-09T18:14:11.352Z,75.20
2024-04-09T18:16:38.907Z,75.27
2024-04-09T18:19:07.089Z,74.88
2024-04-09T18:21:34.640Z,75.04
2024-04-09T18:24:01.974Z,75.52
2024-04-09T18:26:29.320Z,74.79
2024-04-09T18:28:56.878Z,74.92
2024-04-09T18:31:24.226Z,74.95
2024-04-09T18:33:52.020Z,74.09
2024-04-09T18:36:19.490Z,74.23
2024-04-09T18:38:49.524Z,73.84
2024-04-09T18:41:17.363Z,74.86
2024-04-09T18:43:45.479Z,74.94
2024-04-09T18:46:13.180Z,74.68
2024-04-09T18:48:40.619Z,75.48
2024-04-09T18:51:11.969Z,75.28
2024-04-09T18:53:39.457Z,74.95
2024-04-09T18:56:06.989Z,74.91
2024-04-09T18:58:35.408Z,75.84
2024-04-09T19:01:03.484Z,74.11
2024-04-09T19:03:30.881Z,75.05
2024-04-09T19:05:58.558Z,73.62
2024-04-09T19:08:26.035Z,74.55
2024-04-09T19:10:53.477Z,74.80
2024-04-09T19:13:20.938Z,73.60
2024-04-09T19:15:49.132Z,74.42
2024-04-09T19:18:16.551Z,72.33
2024-04-09T19:20:44.708Z,73.23
2024-04-09T19:23:12.034Z,74.28
2024-04-09T19:25:39.401Z,74.28
2024-04-09T19:28:06.979Z,73.61
2024-04-09T19:30:34.272Z,74.49
2024-04-09T19:33:01.700Z,73.83
2024-04-09T19:35:29.255Z,73.73
2024-04-09T19:37:56.800Z,71.26
2024-04-09T19:40:24.236Z,72.47
2024-04-09T19:42:52.236Z,71.05
2024-04-09T19:45:20.459Z,70.78
2024-04-09T19:47:47.933Z,68.44
2024-04-09T19:50:16.971Z,72.04
2024-04-09T19:52:44.360Z,66.17
2024-04-09T19:55:11.800Z,66.45
2024-04-09T19:57:40.610Z,66.31
2024-04-09T20:00:11.278Z,68.32
2024-04-09T20:02:40.787Z,64.31
2024-04-09T20:05:11.616Z,64.63
2024-04-09T20:07:38.966Z,64.59
2024-04-09T20:10:08.228Z,65.02
2024-04-09T20:12:38.655Z,70.11
2024-04-09T20:15:06.447Z,68.67
2024-04-09T20:17:34.088Z,66.14
2024-04-09T20:20:01.575Z,66.05
2024-04-09T20:22:28.963Z,67.50
2024-04-09T20:24:56.619Z,70.48
2024-04-09T20:27:23.930Z,68.37
2024-04-09T20:29:51.260Z,70.66
2024-04-09T20:32:19.155Z,67.59
2024-04-09T20:34:46.652Z,68.09
2024-04-09T20:37:15.048Z,67.32
2024-04-09T20:39:42.375Z,66.87
2024-04-09T20:42:10.201Z,69.91
2024-04-09T20:44:38.899Z,68.43
2024-04-09T20:47:06.410Z,69.83
2024-04-09T20:49:34.435Z,68.51
2024-04-09T20:52:02.113Z,70.32
2024-04-09T20:54:29.442Z,69.25
2024-04-09T20:56:56.916Z,69.54
2024-04-09T20:59:24.318Z,68.12
2024-04-09T21:01:51.716Z,68.70
2024-04-09T21:04:19.104Z,70.56
2024-04-09T21:06:46.689Z,69.40
2024-04-09T21:09:14.833Z,69.74
2024-04-09T21:11:42.478Z,69.38
2024-04-09T21:14:09.995Z,69.75
2024-04-09T21:16:37.517Z,71.35
2024-04-09T21:19:04.838Z,69.91
2024-04-09T21:21:32.251Z,69.21
2024-04-09T21:23:59.590Z,67.88
2024-04-09T21:26:29.952Z,70.12
2024-04-09T21:28:57.473Z,70.42
2024-04-09T21:31:24.934Z,69.26
2024-04-09T21:33:53.018Z,69.38
2024-04-09T21:36:20.560Z,69.99
2024-04-09T21:38:47.890Z,70.83
2024-04-09T21:41:15.271Z,69.49
2024-04-09T21:43:42.594Z,69.53
2024-04-09T21:46:09.892Z,70.12
2024-04-09T21:48:37.416Z,69.60
2024-04-09T21:51:05.181Z,70.62
2024-04-09T21:53:33.040Z,70.29
2024-04-09T21:56:00.494Z,69.79
2024-04-09T21:58:29.348Z,71.06
2024-04-09T22:00:58.111Z,70.88
2024-04-09T22:03:25.775Z,69.68
2024-04-09T22:05:53.563Z,69.93
2024-04-09T22:08:20.962Z,69.63
2024-04-09T22:10:48.393Z,70.63
2024-04-09T22:13:15.832Z,69.96
2024-04-09T22:15:43.150Z,71.52
2024-04-09T22:18:11.459Z,70.10
2024-04-09T22:20:40.102Z,70.64
2024-04-09T22:23:13.638Z,69.82
2024-04-09T22:25:42.791Z,70.67
2024-04-09T22:28:10.360Z,71.23
2024-04-09T22:30:40.864Z,71.52
2024-04-09T22:33:08.936Z,71.42
2024-04-09T22:35:36.751Z,71.15
2024-04-09T22:38:04.352Z,71.04
2024-04-09T22:40:31.793Z,71.50
2024-04-09T22:42:59.193Z,71.83
2024-04-09T22:45:26.683Z,71.42
2024-04-09T22:47:54.203Z,72.05
2024-04-09T22:50:21.843Z,72.42
2024-04-09T22:52:49.293Z,72.73
2024-04-09T22:55:16.951Z,72.55
2024-04-09T22:57:44.270Z,73.32
2024-04-09T23:00:13.394Z,73.26
2024-04-09T23:02:41.258Z,73.56
2024-04-09T23:05:11.427Z,73.31
2024-04-09T23:07:38.983Z,73.81
2024-04-09T23:10:06.700Z,74.21
2024-04-09T23:12:34.690Z,74.17
2024-04-09T23:15:02.033Z,74.18
2024-04-09T23:17:29.636Z,74.47
2024-04-09T23:19:57.468Z,75.00
2024-04-09T23:22:24.809Z,73.53
2024-04-09T23:24:52.102Z,74.75
2024-04-09T23:27:19.499Z,74.30
2024-04-09T23:29:46.806Z,74.02
2024-04-09T23:32:14.120Z,74.67
2024-04-09T23:34:41.607Z,74.60
2024-04-09T23:37:08.888Z,75.22
2024-04-09T23:39:36.201Z,74.73
2024-04-09T23:42:05.478Z,73.57
2024-04-09T23:44:34.365Z,74.17
2024-04-09T23:47:03.123Z,74.45
2024-04-09T23:49:31.239Z,74.40
2024-04-09T23:51:58.612Z,74.21
2024-04-09T23:54:26.126Z,74.05
2024-04-09T23:56:53.590Z,75.04
2024-04-09T23:59:21.107Z,74.41
